Riverview, Missouri
Current Conditions -  °F | °C
As of 7:51 PM on Friday 21 Nov 2014 (Local Time) from KSTL Reporting Station
Overcast Overcast  
Wind Chill: 36°   Ceiling: 2000
Heat Index: 43°   Visibility: 10mi
Dew Point: 23°   Wind: 13mph
Humidity: 45%   Direction: 130°SE
Pressure: 30.26"   Gusts: NA
Location:  38.7508°N, 90.2149°W
Report Text: KSTL 220151Z 13011KT 10SM BKN020 OVC034 06/M05 A3026 RMK AO2 SLP255 T00611050
Loading
Personal Weather Stations






























Interactive Weather Map New forecast layout! Learn more

10-Day Weather Forecast

Advertisements
Track Severe Weather on mobile